createdAt,value
2019-02-14T00:00:17.848Z,-0.16
2019-02-14T00:10:19.089Z,-0.25
2019-02-14T00:20:20.037Z,0.05
2019-02-14T00:30:20.749Z,-0.70
2019-02-14T00:40:21.442Z,-0.19
2019-02-14T00:50:22.126Z,-0.12
2019-02-14T01:00:22.792Z,0.08
2019-02-14T01:10:26.463Z,-0.26
2019-02-14T01:20:27.383Z,-0.38
2019-02-14T01:30:28.138Z,-0.55
2019-02-14T01:40:28.829Z,-0.37
2019-02-14T01:50:29.770Z,-0.34
2019-02-14T02:00:33.252Z,-0.15
2019-02-14T02:10:33.933Z,-0.39
2019-02-14T02:20:34.589Z,-0.27
2019-02-14T02:30:35.225Z,-0.21
2019-02-14T02:40:39.051Z,-0.42
2019-02-14T02:50:41.781Z,-0.44
2019-02-14T03:00:42.423Z,-0.63
2019-02-14T03:10:43.081Z,-0.63
2019-02-14T03:20:43.768Z,-0.60
2019-02-14T03:30:47.505Z,-0.50
2019-02-14T03:40:48.374Z,-0.45
2019-02-14T03:50:50.811Z,-0.66
2019-02-14T04:00:51.491Z,-0.85
2019-02-14T04:10:55.185Z,-0.41
2019-02-14T04:20:55.841Z,-1.04
2019-02-14T04:30:56.565Z,-1.04
2019-02-14T04:40:57.269Z,-1.12
2019-02-14T04:50:57.915Z,-1.44
2019-02-14T05:00:58.560Z,-1.32
2019-02-14T05:10:59.276Z,-1.70
2019-02-14T05:21:05.365Z,-1.76
2019-02-14T05:31:06.046Z,-1.70
2019-02-14T05:41:08.346Z,-1.74
2019-02-14T05:51:09.197Z,-1.63
2019-02-14T06:01:13.110Z,-1.87
2019-02-14T06:11:16.794Z,-1.92
2019-02-14T06:21:17.441Z,-1.98
2019-02-14T06:31:18.092Z,-1.98
2019-02-14T06:41:18.733Z,-2.18
2019-02-14T06:51:19.423Z,-2.08
2019-02-14T07:01:20.192Z,-1.83
2019-02-14T07:11:21.085Z,-1.83
2019-02-14T07:21:21.946Z,-2.29
2019-02-14T07:31:22.854Z,-1.85
2019-02-14T07:41:23.897Z,-1.73
2019-02-14T07:51:25.445Z,-0.67
2019-02-14T08:01:26.172Z,0.20
2019-02-14T08:11:27.157Z,0.60
2019-02-14T08:21:27.918Z,0.91
2019-02-14T08:31:29.304Z,1.29
2019-02-14T08:41:30.708Z,0.77
2019-02-14T08:51:32.604Z,0.14
2019-02-14T09:01:33.716Z,0.38
2019-02-14T09:11:34.361Z,1.46
2019-02-14T09:21:35.461Z,1.01
2019-02-14T09:31:36.373Z,1.53
2019-02-14T09:41:37.298Z,2.34
2019-02-14T09:51:37.984Z,3.24
2019-02-14T10:01:41.530Z,3.21
2019-02-14T10:11:44.506Z,3.13
2019-02-14T10:21:45.171Z,3.13
2019-02-14T10:31:46.110Z,3.61
2019-02-14T10:41:48.154Z,1.56
2019-02-14T10:51:49.051Z,2.57
2019-02-14T11:01:49.663Z,2.39
2019-02-14T11:11:51.632Z,2.50
2019-02-14T11:21:52.473Z,3.05
2019-02-14T11:31:53.343Z,3.57
2019-02-14T11:41:53.995Z,5.21
2019-02-14T11:51:56.795Z,5.31
2019-02-14T12:02:00.213Z,6.55
2019-02-14T12:12:01.131Z,6.42
2019-02-14T12:22:03.063Z,7.86
2019-02-14T12:32:03.982Z,9.16
2019-02-14T12:42:04.964Z,8.72
2019-02-14T12:52:05.918Z,8.25
2019-02-14T13:02:06.815Z,8.22
2019-02-14T13:12:07.527Z,7.90
2019-02-14T13:22:08.398Z,7.78
2019-02-14T13:32:09.099Z,7.36
2019-02-14T13:42:09.669Z,8.21
2019-02-14T13:52:10.317Z,8.31
2019-02-14T14:02:11.000Z,6.96
2019-02-14T14:12:11.683Z,8.51
2019-02-14T14:22:12.359Z,8.41
2019-02-14T14:32:13.072Z,7.98
2019-02-14T14:42:13.730Z,7.86
2019-02-14T14:52:16.250Z,8.34
2019-02-14T15:02:17.357Z,9.55
2019-02-14T15:12:18.012Z,8.96
2019-02-14T15:22:19.044Z,8.90
2019-02-14T15:32:19.747Z,10.72
2019-02-14T15:42:21.030Z,10.29
2019-02-14T15:52:21.749Z,10.54
2019-02-14T16:02:22.682Z,10.37
2019-02-14T16:12:23.477Z,9.73
2019-02-14T16:22:30.122Z,9.47
2019-02-14T16:32:29.007Z,8.71
2019-02-14T16:42:29.712Z,7.71
2019-02-14T16:52:30.566Z,6.15
2019-02-14T17:02:31.300Z,5.32
2019-02-14T17:12:31.989Z,4.94
2019-02-14T17:22:32.977Z,4.32
2019-02-14T17:32:33.918Z,3.83
2019-02-14T17:42:34.669Z,3.36
2019-02-14T17:52:35.549Z,3.20
2019-02-14T18:02:36.479Z,2.86
2019-02-14T18:12:37.116Z,2.80
2019-02-14T18:22:38.113Z,2.45
2019-02-14T18:32:41.589Z,2.55
2019-02-14T18:42:44.713Z,2.27
2019-02-14T18:52:45.385Z,2.25
2019-02-14T19:02:46.061Z,2.10
2019-02-14T19:12:59.313Z,1.85
2019-02-14T19:23:00.457Z,1.36
2019-02-14T19:33:01.152Z,1.52
2019-02-14T19:43:01.899Z,1.62
2019-02-14T19:53:02.612Z,1.35
2019-02-14T20:03:03.438Z,1.28
2019-02-14T20:13:04.526Z,1.23
2019-02-14T20:23:06.116Z,1.23
2019-02-14T20:33:07.152Z,1.00
2019-02-14T20:43:08.162Z,0.80
2019-02-14T20:53:08.981Z,0.84
2019-02-14T21:03:09.778Z,0.96
2019-02-14T21:13:10.890Z,0.66
2019-02-14T21:23:13.726Z,0.86
2019-02-14T21:33:14.389Z,0.81
2019-02-14T21:43:15.290Z,0.61
2019-02-14T21:53:15.937Z,0.47
2019-02-14T22:03:18.865Z,0.72
2019-02-14T22:23:45.806Z,0.33
2019-02-14T22:33:46.700Z,0.49
2019-02-14T22:43:47.497Z,0.26
2019-02-14T22:53:48.651Z,0.39
2019-02-14T23:03:49.472Z,0.21
2019-02-14T23:13:55.852Z,0.16
2019-02-14T23:24:22.390Z,0.07
2019-02-14T23:34:23.582Z,-0.01
2019-02-14T23:44:24.848Z,-0.07
2019-02-14T23:54:25.801Z,0.01
